Time;durP1;ratioP1;P1;durP2;ratioP2;P2;SDS_P1;SDS_P2;PMS_P1;PMS_P2;Temp;Humidity;BMP_temperature;BMP_pressure;BME280_temperature;BME280_humidity;BME280_pressure;Samples;Min_cycle;Max_cycle;Signal;HPM_P1;HPM_P2
2021/05/13 00:00:19;;;;;;;29.77;23.60;;;;;;;10.42;100.00;100533.03;4988909;28;20133;-81
2021/05/13 00:02:45;;;;;;;31.02;22.88;;;;;;;10.38;100.00;100529.81;4974402;28;20462;-82
2021/05/13 00:05:11;;;;;;;30.63;23.27;;;;;;;10.36;100.00;100532.69;4969866;28;20085;-82
2021/05/13 00:07:37;;;;;;;32.85;23.00;;;;;;;10.38;100.00;100532.50;4978498;28;20419;-81
2021/05/13 00:10:09;;;;;;;33.33;21.77;;;;;;;10.36;100.00;100530.00;4973126;28;20122;-81
2021/05/13 00:12:47;;;;;;;33.03;22.77;;;;;;;10.33;100.00;100532.19;4991842;28;20438;-81
2021/05/13 00:15:19;;;;;;;33.53;23.53;;;;;;;10.29;100.00;100525.47;4961244;28;20049;-82
2021/05/13 00:17:45;;;;;;;32.88;24.38;;;;;;;10.22;100.00;100519.94;4973410;28;20126;-82
2021/05/13 00:20:16;;;;;;;34.15;23.83;;;;;;;10.16;100.00;100518.75;4987106;28;21115;-82
2021/05/13 00:22:41;;;;;;;33.72;23.95;;;;;;;10.16;100.00;100521.44;4990728;28;20073;-82
2021/05/13 00:25:07;;;;;;;33.28;23.80;;;;;;;10.15;100.00;100518.91;4989063;28;20069;-82
2021/05/13 00:27:33;;;;;;;32.95;24.38;;;;;;;10.08;100.00;100513.41;4986474;28;20078;-82
2021/05/13 00:29:59;;;;;;;33.50;24.92;;;;;;;10.06;100.00;100517.25;4990387;28;20074;-82
2021/05/13 00:32:24;;;;;;;37.92;23.98;;;;;;;10.02;100.00;100513.22;4999497;28;20034;-81
2021/05/13 00:34:50;;;;;;;34.63;25.98;;;;;;;9.97;100.00;100516.41;4987455;28;20047;-81
2021/05/13 00:37:15;;;;;;;31.92;24.33;;;;;;;9.95;100.00;100518.41;4988344;28;20550;-82
2021/05/13 00:39:40;;;;;;;36.50;24.88;;;;;;;9.87;100.00;100513.06;4988056;28;20070;-81
2021/05/13 00:42:06;;;;;;;32.10;24.85;;;;;;;9.85;100.00;100517.75;4989272;28;20030;-81
2021/05/13 00:44:36;;;;;;;33.97;23.92;;;;;;;9.81;100.00;100522.59;4984003;28;20038;-82
2021/05/13 00:47:03;;;;;;;33.30;25.63;;;;;;;9.79;100.00;100516.56;4985065;28;20039;-81
2021/05/13 00:49:28;;;;;;;35.30;24.38;;;;;;;9.77;100.00;100512.38;4987101;28;20057;-82
2021/05/13 00:51:54;;;;;;;31.77;25.92;;;;;;;9.73;100.00;100513.72;4963391;28;20038;-82
2021/05/13 00:54:19;;;;;;;31.00;24.20;;;;;;;9.66;100.00;100519.72;4963789;28;20443;-81
2021/05/13 00:56:45;;;;;;;36.00;26.45;;;;;;;9.67;100.00;100505.34;4975586;28;20487;-82
2021/05/13 00:59:13;;;;;;;35.53;25.85;;;;;;;9.63;100.00;100513.84;4978976;28;20068;-81
2021/05/13 01:04:13;;;;;;;34.75;27.63;;;;;;;9.59;100.00;100517.88;4980070;28;20151;-81
2021/05/13 01:06:38;;;;;;;38.83;27.40;;;;;;;9.53;100.00;100508.66;4995686;28;20130;-81
2021/05/13 01:09:10;;;;;;;37.85;27.52;;;;;;;9.55;100.00;100513.84;4978872;28;20133;-81
2021/05/13 01:11:38;;;;;;;35.80;27.17;;;;;;;9.54;100.00;100504.97;4978823;28;20496;-81
2021/05/13 01:14:15;;;;;;;42.75;29.02;;;;;;;9.50;100.00;100511.66;4970462;28;20043;-81
2021/05/13 01:19:38;;;;;;;38.63;28.95;;;;;;;9.48;100.00;100505.63;4987193;28;20486;-82
2021/05/13 01:22:04;;;;;;;36.97;28.33;;;;;;;9.46;100.00;100507.63;4990158;28;20121;-81
2021/05/13 01:24:30;;;;;;;38.25;29.40;;;;;;;9.49;100.00;100504.63;4987427;28;20549;-81
2021/05/13 01:26:56;;;;;;;36.95;28.63;;;;;;;9.47;100.00;100503.97;4982490;28;20046;-81
2021/05/13 01:29:24;;;;;;;34.88;28.02;;;;;;;9.48;100.00;100500.28;4965675;28;20212;-81
2021/05/13 01:31:50;;;;;;;41.55;30.60;;;;;;;9.49;100.00;100499.25;4997734;28;20050;-82
2021/05/13 01:34:17;;;;;;;36.65;28.40;;;;;;;9.49;100.00;100496.56;4977237;28;20058;-82
2021/05/13 01:36:43;;;;;;;34.40;27.75;;;;;;;9.48;100.00;100500.28;4981818;28;20393;-82
2021/05/13 01:39:11;;;;;;;36.08;28.60;;;;;;;9.47;100.00;100495.94;4989855;28;20081;-81
2021/05/13 01:41:38;;;;;;;40.17;30.02;;;;;;;9.49;100.00;100496.56;4989996;28;20042;-81
2021/05/13 01:44:04;;;;;;;39.35;28.30;;;;;;;9.51;100.00;100483.88;4973439;28;20038;-82
2021/05/13 01:46:29;;;;;;;37.53;28.95;;;;;;;9.45;100.00;100476.50;4989758;28;20043;-82
2021/05/13 01:48:55;;;;;;;39.58;28.65;;;;;;;9.45;100.00;100481.84;4985793;28;20105;-82
2021/05/13 01:51:20;;;;;;;38.78;28.73;;;;;;;9.44;100.00;100477.50;4980217;28;20042;-81
2021/05/13 01:53:47;;;;;;;35.00;29.10;;;;;;;9.43;100.00;100481.16;4976773;28;20034;-81
2021/05/13 01:56:14;;;;;;;35.90;29.33;;;;;;;9.44;100.00;100477.50;4977928;28;20042;-81
2021/05/13 01:58:41;;;;;;;35.95;28.80;;;;;;;9.40;100.00;100482.31;4978084;28;20488;-82
2021/05/13 02:01:12;;;;;;;39.28;28.98;;;;;;;9.39;100.00;100479.84;4978587;28;20129;-81
2021/05/13 02:03:39;;;;;;;39.55;29.00;;;;;;;9.32;100.00;100482.34;4984729;28;20089;-81
2021/05/13 02:06:05;;;;;;;37.90;28.55;;;;;;;9.25;100.00;100481.28;4981775;28;20105;-81
2021/05/13 02:08:31;;;;;;;40.78;31.17;;;;;;;9.31;100.00;100485.16;4987125;28;20454;-81
2021/05/13 02:10:56;;;;;;;41.17;29.85;;;;;;;9.30;100.00;100478.16;4986216;28;20043;-82
2021/05/13 02:13:22;;;;;;;42.78;32.70;;;;;;;9.26;100.00;100483.81;4968599;28;20127;-82
2021/05/13 02:15:47;;;;;;;42.13;31.38;;;;;;;9.29;100.00;100477.28;4965208;28;20051;-81
2021/05/13 02:18:13;;;;;;;45.42;33.92;;;;;;;9.29;100.00;100473.78;4987767;28;20794;-81
2021/05/13 02:20:39;;;;;;;48.55;32.38;;;;;;;9.30;100.00;100472.78;4980318;28;20043;-81
2021/05/13 02:23:04;;;;;;;44.88;33.70;;;;;;;9.32;100.00;100481.47;4986549;28;20051;-81
2021/05/13 02:25:33;;;;;;;50.53;35.17;;;;;;;9.33;100.00;100477.81;4989943;28;20052;-81
2021/05/13 02:28:02;;;;;;;45.95;33.20;;;;;;;9.31;100.00;100477.13;4985225;28;20053;-82
2021/05/13 02:30:28;;;;;;;50.17;34.85;;;;;;;9.33;100.00;100477.81;4974642;28;20089;-82
2021/05/13 02:32:54;;;;;;;48.53;35.80;;;;;;;9.37;100.00;100473.78;4982553;28;20041;-81
2021/05/13 02:35:20;;;;;;;47.33;35.38;;;;;;;9.38;100.00;100472.78;4990018;28;20042;-81
2021/05/13 02:37:46;;;;;;;49.05;33.95;;;;;;;9.37;100.00;100461.25;4985704;28;20109;-81
2021/05/13 02:40:13;;;;;;;51.42;35.65;;;;;;;9.39;100.00;100461.09;4984044;28;20049;-81
2021/05/13 02:42:39;;;;;;;55.28;37.28;;;;;;;9.37;100.00;100460.41;4964078;28;20097;-81
2021/05/13 02:45:06;;;;;;;54.13;36.53;;;;;;;9.36;100.00;100453.38;4978843;28;20112;-82
2021/05/13 02:47:31;;;;;;;51.42;37.67;;;;;;;9.33;100.00;100451.03;4968949;28;20130;-82
2021/05/13 02:49:57;;;;;;;49.97;36.70;;;;;;;9.35;100.00;100447.19;4993237;28;20047;-82
2021/05/13 02:52:22;;;;;;;49.60;36.95;;;;;;;9.36;100.00;100442.66;4979168;28;20031;-82
2021/05/13 02:54:48;;;;;;;48.85;34.72;;;;;;;9.32;100.00;100444.84;4986345;28;20045;-81
2021/05/13 02:57:14;;;;;;;50.28;37.08;;;;;;;9.32;100.00;100443.97;4982981;28;21078;-81
2021/05/13 03:02:08;;;;;;;55.03;38.58;;;;;;;9.27;100.00;100434.63;4983062;28;20313;-81
2021/05/13 03:04:34;;;;;;;53.33;37.03;;;;;;;9.20;100.00;100432.75;4984606;28;20049;-81
2021/05/13 03:07:01;;;;;;;59.70;41.28;;;;;;;9.21;100.00;100424.56;4979439;28;20502;-81
2021/05/13 03:09:26;;;;;;;58.05;39.67;;;;;;;9.26;100.00;100424.06;4958015;28;20057;-81
2021/05/13 03:11:52;;;;;;;55.13;38.63;;;;;;;9.26;100.00;100421.38;4976331;28;20038;-82
2021/05/13 03:14:17;;;;;;;59.67;39.13;;;;;;;9.27;100.00;100429.25;4968692;28;20054;-82
2021/05/13 03:16:43;;;;;;;60.53;41.92;;;;;;;9.26;100.00;100429.41;4998995;28;20047;-82
2021/05/13 03:19:14;;;;;;;61.83;41.55;;;;;;;9.29;100.00;100422.91;4988171;28;20045;-82
2021/05/13 03:21:43;;;;;;;59.78;41.08;;;;;;;9.27;100.00;100423.91;4987185;28;20427;-81
2021/05/13 03:24:15;;;;;;;60.60;40.22;;;;;;;9.25;100.00;100423.22;4968571;28;20042;-82
2021/05/13 03:29:08;;;;;;;59.60;41.42;;;;;;;9.24;100.00;100421.56;4983385;28;20042;-81
2021/05/13 03:31:35;;;;;;;58.72;41.15;;;;;;;9.28;100.00;100430.09;4989894;28;20042;-82
2021/05/13 03:34:01;;;;;;;60.13;42.97;;;;;;;9.30;100.00;100432.63;4979739;28;20038;-82
2021/05/13 03:36:27;;;;;;;59.42;41.45;;;;;;;9.31;100.00;100434.28;4986865;28;20038;-81
2021/05/13 03:38:52;;;;;;;64.32;42.55;;;;;;;9.28;100.00;100432.78;4981563;28;20474;-82
2021/05/13 03:41:18;;;;;;;62.42;43.05;;;;;;;9.27;100.00;100429.25;4983135;28;20054;-82
2021/05/13 03:43:43;;;;;;;64.95;43.67;;;;;;;9.31;100.00;100429.75;4982358;28;20125;-81
2021/05/13 03:46:09;;;;;;;66.82;45.15;;;;;;;9.35;100.00;100431.13;4998811;28;20038;-81
2021/05/13 03:48:34;;;;;;;63.95;43.65;;;;;;;9.37;100.00;100428.28;4992781;28;20073;-81
2021/05/13 03:51:00;;;;;;;70.32;44.10;;;;;;;9.38;100.00;100424.56;4992250;28;20117;-82
2021/05/13 03:53:25;;;;;;;68.70;45.15;;;;;;;9.39;100.00;100434.31;4980485;28;20046;-81
2021/05/13 03:55:53;;;;;;;66.13;42.50;;;;;;;9.40;100.00;100433.28;4991500;28;20133;-81
2021/05/13 03:58:25;;;;;;;64.32;44.20;;;;;;;9.41;100.00;100425.09;4999670;28;20038;-82
2021/05/13 04:03:19;;;;;;;59.13;40.33;;;;;;;9.40;100.00;100422.56;4967431;28;20042;-82
2021/05/13 04:05:45;;;;;;;65.60;42.60;;;;;;;9.41;100.00;100426.94;4989434;28;20041;-82
2021/05/13 04:08:12;;;;;;;57.53;40.65;;;;;;;9.41;100.00;100416.25;4981257;28;20138;-82
2021/05/13 04:10:37;;;;;;;60.30;41.70;;;;;;;9.41;100.00;100413.56;4991359;28;20062;-82
2021/05/13 04:13:05;;;;;;;65.93;42.63;;;;;;;9.39;100.00;100416.38;4998343;28;20101;-82
2021/05/13 04:15:30;;;;;;;68.00;45.10;;;;;;;9.37;100.00;100405.00;5003511;28;20130;-82
2021/05/13 04:17:56;;;;;;;65.25;44.78;;;;;;;9.38;100.00;100403.16;4981463;28;20129;-82
2021/05/13 04:20:21;;;;;;;66.32;43.50;;;;;;;9.35;100.00;100404.34;4979992;28;20134;-82
2021/05/13 04:22:47;;;;;;;64.32;44.20;;;;;;;9.36;100.00;100397.16;4982168;28;20066;-82
2021/05/13 04:25:13;;;;;;;67.32;42.25;;;;;;;9.33;100.00;100401.00;4997438;28;20129;-82
2021/05/13 04:27:38;;;;;;;61.40;40.83;;;;;;;9.30;100.00;100401.31;4984227;28;20058;-82
2021/05/13 04:30:04;;;;;;;58.35;41.80;;;;;;;9.31;100.00;100404.84;4985984;28;20054;-82
2021/05/13 04:32:30;;;;;;;57.63;40.15;;;;;;;9.30;100.00;100405.84;4978188;28;20464;-82
2021/05/13 04:34:55;;;;;;;53.80;38.25;;;;;;;9.23;100.00;100401.13;4984032;28;20035;-82
2021/05/13 04:37:21;;;;;;;61.72;42.60;;;;;;;9.25;100.00;100391.09;4987884;28;20046;-82
2021/05/13 04:39:46;;;;;;;63.17;42.40;;;;;;;9.24;100.00;100400.16;4968278;28;20041;-82
2021/05/13 04:42:11;;;;;;;55.58;39.15;;;;;;;9.22;100.00;100399.47;4986580;28;20042;-82
2021/05/13 04:44:38;;;;;;;59.63;40.92;;;;;;;9.21;100.00;100397.78;4974583;28;20659;-82
2021/05/13 04:49:50;;;;;;;61.00;41.63;;;;;;;9.16;100.00;100400.13;4989516;28;20050;-82
2021/05/13 04:52:18;;;;;;;58.22;38.80;;;;;;;9.12;100.00;100392.56;4987546;28;20077;-82
2021/05/13 04:54:47;;;;;;;58.33;40.58;;;;;;;9.09;100.00;100391.09;4977808;28;20062;-82
2021/05/13 04:57:12;;;;;;;;;;;;;;;9.10;100.00;100394.59;4975886;28;20039;-82
2021/05/13 04:59:38;;;;;;;62.35;41.70;;;;;;;9.02;100.00;100390.06;4980573;28;20366;-82
2021/05/13 05:02:03;;;;;;;63.70;42.83;;;;;;;9.01;100.00;100396.41;4950055;28;20454;-82
2021/05/13 05:04:28;;;;;;;60.33;42.50;;;;;;;9.02;100.00;100388.22;4956915;28;20093;-82
2021/05/13 05:06:54;;;;;;;61.92;42.47;;;;;;;9.04;100.00;100396.09;4973495;28;20034;-82
2021/05/13 05:09:19;;;;;;;61.30;41.97;;;;;;;9.05;100.00;100392.41;4983128;28;20054;-82
2021/05/13 05:11:45;;;;;;;57.88;42.42;;;;;;;9.04;100.00;100386.22;4976862;28;20090;-82
2021/05/13 05:14:10;;;;;;;63.15;43.17;;;;;;;9.09;100.00;100388.41;4989427;28;20118;-82
2021/05/13 05:16:36;;;;;;;59.72;44.58;;;;;;;9.14;100.00;100379.88;4982569;28;20047;-81
2021/05/13 05:19:01;;;;;;;65.55;44.13;;;;;;;9.18;100.00;100387.41;4980967;28;20070;-82
2021/05/13 05:21:26;;;;;;;69.05;45.60;;;;;;;9.23;100.00;100385.06;5000426;28;20043;-82
2021/05/13 05:23:53;;;;;;;63.75;45.03;;;;;;;9.31;100.00;100380.72;4982616;28;20054;-82
2021/05/13 05:26:20;;;;;;;66.50;46.00;;;;;;;9.36;100.00;100378.41;4986603;28;20050;-82
2021/05/13 05:28:46;;;;;;;64.25;45.47;;;;;;;9.42;100.00;100372.38;4981258;28;20129;-82
2021/05/13 05:31:11;;;;;;;71.65;47.95;;;;;;;9.50;100.00;100369.69;4994698;28;20125;-83
2021/05/13 05:33:36;;;;;;;66.75;45.15;;;;;;;9.57;100.00;100372.53;4981762;28;20040;-82
2021/05/13 05:36:02;;;;;;;66.53;46.45;;;;;;;9.63;100.00;100370.00;4976449;28;20482;-82
2021/05/13 05:38:27;;;;;;;75.95;46.90;;;;;;;9.71;100.00;100361.16;4970152;28;20057;-81
2021/05/13 05:40:53;;;;;;;70.88;47.58;;;;;;;9.80;100.00;100359.28;4978623;28;20055;-82
2021/05/13 05:43:18;;;;;;;66.35;45.53;;;;;;;9.88;100.00;100356.59;4981079;28;20105;-82
2021/05/13 05:45:51;;;;;;;66.60;45.70;;;;;;;9.92;100.00;100365.97;4980008;28;20046;-82
2021/05/13 05:48:17;;;;;;;66.07;43.47;;;;;;;9.95;100.00;100360.25;4988399;28;20061;-82
2021/05/13 05:50:44;;;;;;;68.25;44.45;;;;;;;10.02;100.00;100357.75;4989693;28;20034;-82
2021/05/13 05:53:11;;;;;;;72.63;46.50;;;;;;;10.11;100.00;100356.72;4983020;28;20053;-82
2021/05/13 05:55:40;;;;;;;63.67;43.17;;;;;;;10.16;100.00;100362.41;4977022;28;20092;-82
2021/05/13 05:58:06;;;;;;;65.22;45.47;;;;;;;10.23;100.00;100355.34;4981605;28;20049;-82
2021/05/13 06:00:32;;;;;;;64.68;46.08;;;;;;;10.32;100.00;100350.81;4980260;28;20399;-82
2021/05/13 06:02:57;;;;;;;64.85;44.90;;;;;;;10.41;100.00;100347.06;4976185;28;20089;-82
2021/05/13 06:05:24;;;;;;;68.45;42.97;;;;;;;10.47;100.00;100351.78;4976998;28;20512;-82
2021/05/13 06:07:50;;;;;;;58.65;43.35;;;;;;;10.49;100.00;100348.91;4960809;28;20085;-82
2021/05/13 06:10:16;;;;;;;64.90;44.67;;;;;;;10.59;100.00;100350.38;4984026;28;20113;-82
2021/05/13 06:12:43;;;;;;;54.95;41.90;;;;;;;10.65;100.00;100348.84;4986979;28;20038;-81
2021/05/13 06:15:14;;;;;;;59.60;43.13;;;;;;;10.72;100.00;100347.09;4977830;28;20053;-82
2021/05/13 06:17:40;;;;;;;57.40;41.78;;;;;;;10.74;100.00;100349.63;4979255;28;20043;-82
2021/05/13 06:20:09;;;;;;;56.72;41.47;;;;;;;10.84;100.00;100350.22;4980089;28;20049;-82
2021/05/13 06:22:34;;;;;;;62.15;44.15;;;;;;;11.00;100.00;100347.44;4975715;28;20038;-82
2021/05/13 06:25:00;;;;;;;65.43;43.50;;;;;;;11.12;100.00;100344.34;4978924;28;20058;-82
2021/05/13 06:27:26;;;;;;;63.17;45.25;;;;;;;11.18;100.00;100339.09;4981113;28;20125;-81
2021/05/13 06:29:51;;;;;;;54.05;40.47;;;;;;;11.26;100.00;100336.34;4979540;28;20093;-82
2021/05/13 06:32:17;;;;;;;53.10;38.72;;;;;;;11.33;100.00;100339.16;4976393;28;20128;-82
2021/05/13 06:34:44;;;;;;;51.72;39.03;;;;;;;11.36;100.00;100338.78;4982699;28;20042;-82
2021/05/13 06:37:09;;;;;;;52.10;40.13;;;;;;;11.42;100.00;100326.47;4977877;28;20372;-82
2021/05/13 06:39:35;;;;;;;55.95;43.15;;;;;;;11.48;100.00;100329.31;4980866;28;20423;-82
2021/05/13 06:42:01;;;;;;;52.40;40.22;;;;;;;11.55;100.00;100334.78;4975577;28;20491;-82
2021/05/13 06:44:27;;;;;;;56.60;40.55;;;;;;;11.64;100.00;100343.59;4970024;28;20038;-81
2021/05/13 06:46:52;;;;;;;48.67;37.63;;;;;;;11.63;100.00;100340.09;4977417;28;20047;-82
2021/05/13 06:49:18;;;;;;;49.20;37.75;;;;;;;11.66;100.00;100341.56;4985620;28;20047;-82
2021/05/13 06:51:44;;;;;;;50.97;38.58;;;;;;;11.68;100.00;100340.38;4976978;28;20436;-83
2021/05/13 06:54:09;;;;;;;50.58;38.75;;;;;;;11.77;100.00;100335.75;4985282;28;20503;-83
2021/05/13 06:56:35;;;;;;;49.15;40.60;;;;;;;11.84;100.00;100339.38;4989599;28;20030;-82
2021/05/13 06:59:00;;;;;;;51.60;40.05;;;;;;;12.05;100.00;100345.91;4988471;28;20053;-81
2021/05/13 07:01:26;;;;;;;50.30;37.20;;;;;;;12.02;100.00;100344.41;4985574;28;20058;-83
2021/05/13 07:03:52;;;;;;;51.72;41.63;;;;;;;12.15;100.00;100341.09;4973194;28;20537;-82
2021/05/13 07:06:17;;;;;;;50.15;37.47;;;;;;;12.20;100.00;100338.69;4981977;28;20070;-82
2021/05/13 07:08:43;;;;;;;50.03;40.00;;;;;;;12.30;100.00;100333.84;4959101;28;20442;-83
2021/05/13 07:11:08;;;;;;;50.47;37.35;;;;;;;12.30;100.00;100331.16;4980775;28;20137;-82
2021/05/13 07:13:34;;;;;;;50.08;39.78;;;;;;;12.39;100.00;100337.28;4990098;28;20030;-82
2021/05/13 07:15:59;;;;;;;47.85;39.05;;;;;;;12.49;100.00;100334.31;4982652;28;20038;-82
2021/05/13 07:18:25;;;;;;;50.80;38.22;;;;;;;12.53;100.00;100327.53;4985691;28;20047;-82
2021/05/13 07:20:51;;;;;;;55.28;41.05;;;;;;;12.60;100.00;100329.28;4985264;28;20047;-82
2021/05/13 07:23:16;;;;;;;52.53;39.88;;;;;;;12.73;100.00;100328.59;4975311;28;20116;-82
2021/05/13 07:25:42;;;;;;;54.45;43.35;;;;;;;12.84;100.00;100333.47;4987963;28;20043;-82
2021/05/13 07:28:08;;;;;;;53.65;41.15;;;;;;;12.92;100.00;100335.22;4982416;28;20045;-82
2021/05/13 07:30:34;;;;;;;50.22;38.15;;;;;;;12.91;100.00;100335.41;4984192;28;20122;-82
2021/05/13 07:33:00;;;;;;;49.00;39.60;;;;;;;12.91;100.00;100330.03;4956739;28;20034;-83
2021/05/13 07:35:25;;;;;;;50.15;38.72;;;;;;;13.01;100.00;100338.63;4994378;28;20047;-82
2021/05/13 07:37:51;;;;;;;49.38;37.55;;;;;;;12.96;100.00;100332.97;4987812;28;20054;-83
2021/05/13 07:40:22;;;;;;;48.63;39.50;;;;;;;13.07;100.00;100332.47;4983947;28;20051;-82
2021/05/13 07:42:48;;;;;;;48.53;39.03;;;;;;;13.12;99.30;100332.75;4985999;28;20085;-83
2021/05/13 07:45:16;;;;;;;49.22;40.08;;;;;;;13.29;100.00;100328.78;4970838;28;20046;-83
2021/05/13 07:47:42;;;;;;;43.00;34.00;;;;;;;13.39;100.00;100333.03;4970617;28;20038;-82
2021/05/13 07:50:10;;;;;;;46.65;39.70;;;;;;;13.53;100.00;100329.41;4964834;28;20035;-82
2021/05/13 07:52:36;;;;;;;45.42;36.90;;;;;;;13.58;98.77;100328.81;4963418;28;20069;-83
2021/05/13 07:55:03;;;;;;;45.10;36.88;;;;;;;13.68;99.22;100326.63;4968355;28;20134;-83
2021/05/13 07:57:28;;;;;;;43.70;37.60;;;;;;;13.77;98.83;100328.97;4963602;28;20042;-82
2021/05/13 07:59:54;;;;;;;43.97;36.42;;;;;;;13.88;97.39;100321.38;4958081;28;20043;-82
2021/05/13 08:02:19;;;;;;;40.63;34.05;;;;;;;13.85;95.30;100322.59;4987574;28;20039;-83
2021/05/13 08:04:45;;;;;;;41.90;34.38;;;;;;;13.85;95.72;100316.38;4968462;28;20043;-82
2021/05/13 08:07:10;;;;;;;44.03;36.47;;;;;;;13.82;95.19;100319.47;4962730;28;20476;-82
2021/05/13 08:09:36;;;;;;;42.88;36.08;;;;;;;14.03;96.29;100327.47;4952779;28;20061;-83
2021/05/13 08:12:01;;;;;;;47.55;36.70;;;;;;;14.14;97.81;100323.41;4960795;28;20046;-82
2021/05/13 08:14:26;;;;;;;40.00;33.88;;;;;;;14.28;96.48;100316.22;4967023;28;20039;-83
2021/05/13 08:16:52;;;;;;;40.88;35.15;;;;;;;14.25;95.14;100327.41;4999208;28;20046;-81
2021/05/13 08:19:17;;;;;;;42.90;35.80;;;;;;;14.53;97.74;100317.41;4984596;28;20137;-83
2021/05/13 08:21:42;;;;;;;38.05;33.65;;;;;;;14.65;94.88;100315.78;4964201;28;20061;-83
2021/05/13 08:24:08;;;;;;;41.90;37.20;;;;;;;14.61;94.29;100322.59;4986772;28;20043;-83
2021/05/13 08:26:33;;;;;;;40.05;34.78;;;;;;;14.51;93.39;100324.84;4985115;28;20062;-83
2021/05/13 08:28:59;;;;;;;40.65;33.70;;;;;;;14.64;94.56;100319.53;4986436;28;20046;-82
2021/05/13 08:31:24;;;;;;;39.03;34.28;;;;;;;14.72;92.86;100321.19;4976172;28;20400;-82
2021/05/13 08:33:50;;;;;;;40.20;35.03;;;;;;;14.65;91.91;100326.59;4999510;28;20075;-83
2021/05/13 08:36:15;;;;;;;41.47;34.13;;;;;;;14.53;91.12;100316.53;4961268;28;20057;-82
2021/05/13 08:38:41;;;;;;;40.75;36.05;;;;;;;14.54;92.65;100319.06;4970574;28;20047;-82
2021/05/13 08:41:06;;;;;;;38.65;32.88;;;;;;;14.41;89.78;100318.97;4991853;28;20046;-83
2021/05/13 08:43:32;;;;;;;41.58;33.40;;;;;;;14.47;91.37;100314.63;4982860;28;20499;-83
2021/05/13 08:45:58;;;;;;;41.75;36.10;;;;;;;14.75;93.09;100311.84;4979736;28;20093;-83
2021/05/13 08:48:26;;;;;;;43.10;37.65;;;;;;;14.84;88.61;100314.16;4983618;28;20038;-82
2021/05/13 08:50:52;;;;;;;45.53;37.72;;;;;;;14.96;89.10;100313.56;4981375;28;20042;-83
2021/05/13 08:53:20;;;;;;;42.35;36.47;;;;;;;14.91;86.32;100314.19;4984455;28;20062;-82
2021/05/13 08:55:45;;;;;;;39.65;34.67;;;;;;;14.89;88.12;100308.97;4983789;28;20113;-83
2021/05/13 08:58:11;;;;;;;39.45;35.00;;;;;;;14.96;87.71;100316.25;4986514;28;20034;-82
2021/05/13 09:00:36;;;;;;;43.47;36.80;;;;;;;14.97;87.55;100315.25;4972943;28;20472;-82
2021/05/13 09:03:02;;;;;;;42.83;35.95;;;;;;;15.03;86.86;100309.84;5004034;28;20034;-82
2021/05/13 09:05:27;;;;;;;42.17;36.22;;;;;;;15.19;88.53;100307.78;4993087;28;20121;-82
2021/05/13 09:07:54;;;;;;;44.17;36.33;;;;;;;15.22;88.06;100305.53;4990003;28;20038;-83
2021/05/13 09:10:19;;;;;;;41.40;36.35;;;;;;;15.31;87.57;100306.16;4992275;28;20042;-83
2021/05/13 09:12:47;;;;;;;39.67;33.58;;;;;;;15.22;86.62;100304.66;4990891;28;20057;-84
2021/05/13 09:15:32;;;;;;;42.35;36.08;;;;;;;15.34;89.09;100294.91;4996581;28;20491;-83
2021/05/13 09:17:57;;;;;;;43.10;35.65;;;;;;;15.54;88.96;100301.16;4982786;28;20180;-83
2021/05/13 09:20:29;;;;;;;40.53;34.70;;;;;;;15.52;85.68;100300.53;4981022;28;20122;-83
2021/05/13 09:23:16;;;;;;;41.08;35.30;;;;;;;15.35;86.58;100297.41;4969963;28;20038;-83
2021/05/13 09:25:43;;;;;;;44.95;36.60;;;;;;;15.33;86.87;100294.09;4965148;28;20058;-83
2021/05/13 09:28:08;;;;;;;42.08;37.10;;;;;;;15.35;87.20;100293.88;4983227;28;20048;-83
2021/05/13 09:30:35;;;;;;;42.00;36.63;;;;;;;15.36;86.45;100292.81;4972350;28;20129;-84
2021/05/13 09:33:01;;;;;;;40.35;35.08;;;;;;;15.34;86.33;100292.22;4988534;28;20475;-83
2021/05/13 09:35:32;;;;;;;48.35;38.08;;;;;;;15.32;86.08;100287.00;4992556;28;20055;-83
2021/05/13 09:38:00;;;;;;;39.28;35.08;;;;;;;15.28;86.30;100298.47;4985051;28;20172;-83
2021/05/13 09:40:34;;;;;;;42.20;35.85;;;;;;;15.28;85.70;100290.34;4984138;28;20039;-84
2021/05/13 09:43:21;;;;;;;38.70;34.58;;;;;;;15.36;84.18;100292.81;5002808;28;20042;-83
2021/05/13 09:46:01;;;;;;;42.15;36.25;;;;;;;15.46;84.96;100289.72;4979611;28;20068;-83
2021/05/13 09:48:41;;;;;;;45.17;37.85;;;;;;;15.42;83.24;100292.03;4986821;28;20169;-83
2021/05/13 09:51:19;;;;;;;41.35;36.67;;;;;;;15.39;84.05;100287.00;4977872;28;20144;-82
2021/05/13 09:53:48;;;;;;;44.17;36.15;;;;;;;15.32;83.37;100292.41;4986505;28;20031;-84
2021/05/13 09:56:28;;;;;;;41.13;35.95;;;;;;;15.29;81.23;100286.59;4964719;28;20050;-83
2021/05/13 09:58:55;;;;;;;42.83;37.22;;;;;;;15.21;82.23;100290.31;4987394;28;20038;-83
2021/05/13 10:01:21;;;;;;;41.75;36.85;;;;;;;15.31;82.74;100289.94;4981975;28;20433;-83
2021/05/13 10:03:46;;;;;;;41.88;36.08;;;;;;;15.29;81.03;100286.59;4987614;28;20097;-82
2021/05/13 10:06:13;;;;;;;44.70;36.80;;;;;;;15.34;81.30;100284.09;4984351;28;20129;-83
2021/05/13 10:08:42;;;;;;;45.70;37.47;;;;;;;15.37;80.69;100283.69;4986984;28;20133;-82
2021/05/13 10:11:08;;;;;;;42.83;37.22;;;;;;;15.33;81.07;100279.72;4980232;28;20411;-83
2021/05/13 10:13:35;;;;;;;45.10;38.53;;;;;;;15.41;83.24;100279.53;4984537;28;20491;-83
2021/05/13 10:16:02;;;;;;;40.22;35.42;;;;;;;15.61;82.97;100279.50;4982778;28;20042;-83
2021/05/13 10:18:41;;;;;;;35.92;32.17;;;;;;;15.87;81.53;100277.84;4979039;28;20042;-83
2021/05/13 10:21:13;;;;;;;36.22;31.50;;;;;;;16.02;78.40;100281.97;4998127;28;20039;-83
2021/05/13 10:23:41;;;;;;;37.90;31.40;;;;;;;16.10;76.09;100280.06;4984229;28;20065;-83
2021/05/13 10:26:07;;;;;;;36.85;31.23;;;;;;;16.29;77.82;100271.06;4978029;28;20057;-83
2021/05/13 10:28:34;;;;;;;33.78;29.77;;;;;;;16.57;75.86;100261.75;4976509;28;20051;-83
2021/05/13 10:31:05;;;;;;;35.05;30.83;;;;;;;16.46;76.85;100269.53;4990953;28;20056;-83
2021/05/13 10:33:49;;;;;;;35.92;30.80;;;;;;;16.55;73.21;100269.28;4988919;28;20042;-83
2021/05/13 10:36:19;;;;;;;40.60;31.10;;;;;;;16.58;74.36;100264.25;4989003;28;20125;-83
2021/05/13 10:38:47;;;;;;;36.05;32.00;;;;;;;16.51;73.16;100251.78;4993489;28;20065;-83
2021/05/13 10:41:28;;;;;;;36.10;31.35;;;;;;;16.59;74.04;100265.09;4966636;28;20073;-83
2021/05/13 10:43:54;;;;;;;35.30;29.27;;;;;;;16.74;74.61;100262.91;4984282;28;20046;-83
2021/05/13 10:46:29;;;;;;;35.00;29.35;;;;;;;16.87;71.47;100257.44;4981816;28;20046;-82
2021/05/13 10:49:30;;;;;;;33.10;29.27;;;;;;;17.08;74.10;100258.94;4990606;28;20064;-83
2021/05/13 10:52:15;;;;;;;38.13;30.60;;;;;;;17.04;74.94;100246.09;4944981;28;20039;-83
2021/05/13 10:54:44;;;;;;;35.60;29.10;;;;;;;17.04;73.76;100246.09;4974179;28;20370;-81
2021/05/13 10:57:14;;;;;;;35.75;30.50;;;;;;;17.07;75.30;100246.47;4987104;28;20073;-82
2021/05/13 11:00:09;;;;;;;33.90;29.70;;;;;;;17.08;75.42;100250.81;4995691;28;20117;-82
2021/05/13 11:02:46;;;;;;;30.48;26.48;;;;;;;16.92;73.31;100254.91;4963331;28;20427;-82
2021/05/13 11:05:26;;;;;;;30.67;26.13;;;;;;;16.83;76.04;100255.38;4981911;28;20451;-81
2021/05/13 11:07:52;;;;;;;31.67;26.05;;;;;;;16.87;76.33;100246.59;4995169;28;20053;-82
2021/05/13 11:10:18;;;;;;;27.58;24.65;;;;;;;16.79;75.92;100249.56;4995888;28;20058;-82
2021/05/13 11:12:43;;;;;;;27.70;23.88;;;;;;;16.78;76.82;100237.09;4956443;28;20126;-81
2021/05/13 11:15:23;;;;;;;25.90;22.15;;;;;;;16.67;74.80;100245.88;4959422;28;20562;-81
2021/05/13 11:17:51;;;;;;;27.92;24.15;;;;;;;16.64;77.47;100247.13;4982515;28;20038;-81
2021/05/13 11:20:24;;;;;;;25.33;22.55;;;;;;;16.60;75.13;100245.06;4980154;28;20074;-82
2021/05/13 11:22:54;;;;;;;26.48;22.13;;;;;;;16.56;75.80;100247.38;4984182;28;20077;-82